TimeMDT,TemperatureF,Dew PointF,Humidity,Sea Level PressureIn,VisibilityMPH,Wind Direction,Wind SpeedMPH,Gust SpeedMPH,PrecipitationIn,Events,Conditions,WindDirDegrees,DateUTC
12:15 AM,44.6,19.4,37,30.02,10.0,NW,6.9,-,N/A,,Clear,310,2013-04-11 06:15:00
12:35 AM,42.8,19.4,39,30.02,10.0,NW,4.6,-,N/A,,Clear,310,2013-04-11 06:35:00
12:55 AM,41.0,19.4,42,30.02,10.0,NW,5.8,-,N/A,,Clear,310,2013-04-11 06:55:00
1:15 AM,41.0,19.4,42,30.02,10.0,WNW,5.8,-,N/A,,Clear,300,2013-04-11 07:15:00
1:35 AM,41.0,19.4,42,30.02,10.0,Calm,Calm,-,N/A,,Clear,0,2013-04-11 07:35:00
1:55 AM,35.6,17.6,48,30.01,10.0,Calm,Calm,-,N/A,,Clear,0,2013-04-11 07:55:00
2:15 AM,35.6,17.6,48,30.01,10.0,West,3.5,-,N/A,,Clear,270,2013-04-11 08:15:00
2:35 AM,35.6,17.6,48,30.00,10.0,West,5.8,-,N/A,,Clear,280,2013-04-11 08:35:00
2:55 AM,35.6,17.6,48,30.00,10.0,West,5.8,-,N/A,,Clear,270,2013-04-11 08:55:00
3:15 AM,37.4,15.8,41,30.00,10.0,WNW,5.8,-,N/A,,Clear,300,2013-04-11 09:15:00
3:35 AM,35.6,15.8,44,30.00,10.0,WNW,3.5,-,N/A,,Clear,300,2013-04-11 09:35:00
3:55 AM,33.8,14.0,44,29.99,10.0,NNW,4.6,-,N/A,,Clear,340,2013-04-11 09:55:00
4:15 AM,33.8,17.6,52,29.99,10.0,Calm,Calm,-,N/A,,Clear,0,2013-04-11 10:15:00
4:35 AM,33.8,17.6,52,29.98,10.0,Calm,Calm,-,N/A,,Clear,0,2013-04-11 10:35:00
4:55 AM,33.8,17.6,52,29.99,10.0,NNW,3.5,-,N/A,,Clear,330,2013-04-11 10:55:00
5:15 AM,33.8,17.6,52,29.98,10.0,Calm,Calm,-,N/A,,Clear,0,2013-04-11 11:15:00
5:35 AM,32.0,15.8,51,29.99,10.0,Calm,Calm,-,N/A,,Clear,0,2013-04-11 11:35:00
5:55 AM,32.0,17.6,55,29.99,10.0,Calm,Calm,-,N/A,,Clear,0,2013-04-11 11:55:00
6:15 AM,32.0,15.8,51,29.99,10.0,Calm,Calm,-,N/A,,Clear,0,2013-04-11 12:15:00
6:35 AM,30.2,12.2,47,29.99,10.0,Calm,Calm,-,N/A,,Clear,0,2013-04-11 12:35:00
6:55 AM,28.4,12.2,51,29.99,10.0,SE,3.5,-,N/A,,Clear,140,2013-04-11 12:55:00
7:15 AM,30.2,14.0,51,30.00,10.0,South,6.9,-,N/A,,Clear,180,2013-04-11 13:15:00
7:35 AM,33.8,17.6,52,30.01,10.0,South,4.6,-,N/A,,Clear,180,2013-04-11 13:35:00
7:55 AM,39.2,17.6,42,30.01,10.0,Calm,Calm,-,N/A,,Clear,0,2013-04-11 13:55:00
8:15 AM,42.8,17.6,36,30.01,10.0,Calm,Calm,-,N/A,,Clear,0,2013-04-11 14:15:00
8:35 AM,44.6,19.4,37,30.00,10.0,Calm,Calm,-,N/A,,Clear,0,2013-04-11 14:35:00
8:55 AM,44.6,19.4,37,30.01,10.0,Calm,Calm,-,N/A,,Clear,0,2013-04-11 14:55:00
9:15 AM,46.4,19.4,34,30.01,10.0,Calm,Calm,-,N/A,,Clear,0,2013-04-11 15:15:00
9:35 AM,50.0,19.4,30,30.01,10.0,Calm,Calm,-,N/A,,Clear,0,2013-04-11 15:35:00
9:55 AM,51.8,19.4,28,30.01,10.0,NW,6.9,-,N/A,,Clear,320,2013-04-11 15:55:00
10:15 AM,53.6,17.6,24,30.00,10.0,NW,10.4,-,N/A,,Clear,320,2013-04-11 16:15:00
10:35 AM,55.4,15.8,21,30.00,10.0,NW,10.4,-,N/A,,Clear,310,2013-04-11 16:35:00
11:15 AM,59.0,19.4,22,29.99,10.0,WNW,11.5,20.7,N/A,,Clear,300,2013-04-11 17:15:00
11:35 AM,59.0,19.4,22,29.99,10.0,NW,11.5,18.4,N/A,,Clear,320,2013-04-11 17:35:00
11:55 AM,60.8,19.4,20,29.98,10.0,NW,12.7,19.6,N/A,,Clear,320,2013-04-11 17:55:00
12:15 PM,62.6,19.4,19,29.97,10.0,NW,12.7,16.1,N/A,,Clear,310,2013-04-11 18:15:00
12:35 PM,62.6,19.4,19,29.97,10.0,NW,8.1,17.3,N/A,,Clear,320,2013-04-11 18:35:00
12:55 PM,64.4,19.4,18,29.95,10.0,West,9.2,17.3,N/A,,Clear,280,2013-04-11 18:55:00
1:15 PM,64.4,19.4,18,29.94,10.0,WNW,13.8,19.6,N/A,,Clear,300,2013-04-11 19:15:00
1:35 PM,66.2,19.4,17,29.93,10.0,WNW,9.2,18.4,N/A,,Clear,290,2013-04-11 19:35:00
1:55 PM,68.0,19.4,16,29.93,10.0,NNW,10.4,19.6,N/A,,Clear,330,2013-04-11 19:55:00
2:15 PM,68.0,17.6,15,29.91,10.0,NNW,8.1,20.7,N/A,,Clear,330,2013-04-11 20:15:00
2:35 PM,68.0,17.6,15,29.91,10.0,West,9.2,18.4,N/A,,Clear,270,2013-04-11 20:35:00
2:55 PM,69.8,17.6,14,29.90,10.0,WNW,8.1,18.4,N/A,,Clear,300,2013-04-11 20:55:00
3:15 PM,71.6,17.6,13,29.89,10.0,NW,8.1,16.1,N/A,,Clear,320,2013-04-11 21:15:00
3:35 PM,71.6,15.8,12,29.87,10.0,West,11.5,-,N/A,,Clear,270,2013-04-11 21:35:00
3:55 PM,71.6,14.0,11,29.86,10.0,North,-9999.0,-,N/A,,Clear,0,2013-04-11 21:55:00
4:15 PM,73.4,12.2,10,29.85,10.0,NW,12.7,21.9,N/A,,Clear,310,2013-04-11 22:15:00
4:35 PM,73.4,12.2,10,29.84,10.0,West,15.0,25.3,N/A,,Clear,280,2013-04-11 22:35:00
4:55 PM,73.4,12.2,10,29.83,10.0,West,13.8,-,N/A,,Clear,260,2013-04-11 22:55:00
5:15 PM,73.4,10.4,9,29.83,10.0,WNW,17.3,25.3,N/A,,Clear,300,2013-04-11 23:15:00
5:35 PM,71.6,10.4,9,29.83,10.0,WNW,12.7,21.9,N/A,,Clear,290,2013-04-11 23:35:00
5:55 PM,71.6,10.4,9,29.83,10.0,WNW,18.4,-,N/A,,Clear,290,2013-04-11 23:55:00
6:15 PM,69.8,10.4,10,29.82,10.0,WNW,10.4,-,N/A,,Clear,290,2013-04-12 00:15:00
6:35 PM,71.6,12.2,10,29.82,10.0,WNW,15.0,19.6,N/A,,Clear,300,2013-04-12 00:35:00
6:55 PM,69.8,12.2,11,29.82,10.0,NW,17.3,20.7,N/A,,Clear,320,2013-04-12 00:55:00
7:15 PM,69.8,14.0,12,29.82,10.0,NW,13.8,-,N/A,,Clear,310,2013-04-12 01:15:00
7:35 PM,68.0,17.6,15,29.82,10.0,North,-9999.0,-,N/A,,Clear,0,2013-04-12 01:35:00
7:55 PM,66.2,17.6,15,29.83,10.0,NW,12.7,-,N/A,,Clear,320,2013-04-12 01:55:00
8:15 PM,64.4,21.2,19,29.83,10.0,NW,12.7,-,N/A,,Clear,310,2013-04-12 02:15:00
8:35 PM,64.4,21.2,19,29.85,10.0,WNW,10.4,-,N/A,,Clear,300,2013-04-12 02:35:00
8:55 PM,62.6,21.2,20,29.85,10.0,WNW,10.4,-,N/A,,Clear,290,2013-04-12 02:55:00
9:15 PM,62.6,21.2,20,29.86,10.0,WNW,11.5,-,N/A,,Clear,290,2013-04-12 03:15:00
9:35 PM,60.8,21.2,22,29.87,10.0,WNW,12.7,-,N/A,,Clear,290,2013-04-12 03:35:00
9:55 PM,62.6,21.2,20,29.87,10.0,WNW,16.1,-,N/A,,Clear,290,2013-04-12 03:55:00
10:15 PM,62.6,23.0,22,29.87,10.0,WNW,12.7,19.6,N/A,,Clear,290,2013-04-12 04:15:00
10:35 PM,60.8,21.2,22,29.89,10.0,NNW,4.6,-,N/A,,Clear,340,2013-04-12 04:35:00
10:55 PM,59.0,21.2,23,29.89,10.0,NW,8.1,-,N/A,,Clear,320,2013-04-12 04:55:00
11:15 PM,59.0,23.0,25,29.89,10.0,NNW,4.6,-,N/A,,Clear,340,2013-04-12 05:15:00
11:35 PM,55.4,21.2,26,29.88,10.0,NNW,6.9,-,N/A,,Clear,330,2013-04-12 05:35:00
11:55 PM,53.6,21.2,28,29.88,10.0,NW,3.5,-,N/A,,Clear,320,2013-04-12 05:55:00